Time;durP1;ratioP1;P1;durP2;ratioP2;P2;SDS_P1;SDS_P2;PMS_P1;PMS_P2;Temp;Humidity;BMP_temperature;BMP_pressure;BME280_temperature;BME280_humidity;BME280_pressure;Samples;Min_cycle;Max_cycle;Signal;HPM_P1;HPM_P2
2022/06/16 00:00:18;;;;;;;8.20;4.67;;;;;;;15.20;76.09;101970.09;5051234;28;20210;-75
2022/06/16 00:02:46;;;;;;;5.93;4.43;;;;;;;15.18;76.54;101969.19;5049404;28;20170;-74
2022/06/16 00:05:15;;;;;;;6.87;4.00;;;;;;;15.15;76.22;101969.13;5050858;28;20201;-74
2022/06/16 00:07:41;;;;;;;5.07;4.57;;;;;;;15.13;76.36;101974.25;5034836;28;20194;-74
2022/06/16 00:10:08;;;;;;;6.90;4.40;;;;;;;15.14;76.32;101972.56;5030977;28;20199;-74
2022/06/16 00:12:34;;;;;;;6.23;4.30;;;;;;;15.06;77.16;101981.88;4997206;28;20256;-74
2022/06/16 00:15:00;;;;;;;6.07;4.07;;;;;;;15.06;76.63;101976.69;5030394;28;20229;-74
2022/06/16 00:17:26;;;;;;;4.67;4.10;;;;;;;15.03;76.78;101974.94;5031039;28;20194;-74
2022/06/16 00:19:52;;;;;;;5.60;4.23;;;;;;;14.98;76.63;101973.09;5031031;28;20206;-74
2022/06/16 00:22:18;;;;;;;4.30;3.90;;;;;;;14.92;77.47;101960.94;5031423;28;20543;-74
2022/06/16 00:24:43;;;;;;;9.27;4.63;;;;;;;14.97;77.35;101969.63;5030799;28;20182;-74
2022/06/16 00:27:09;;;;;;;6.03;4.73;;;;;;;14.88;77.18;101959.13;5031506;28;20529;-73
2022/06/16 00:29:34;;;;;;;5.93;4.37;;;;;;;14.87;77.67;101956.56;5013733;28;20182;-74
2022/06/16 00:32:01;;;;;;;5.70;4.80;;;;;;;14.78;78.28;101962.38;5013164;28;20755;-74
2022/06/16 00:34:27;;;;;;;4.77;3.97;;;;;;;14.75;77.95;101962.34;5013677;28;20540;-74
2022/06/16 00:36:53;;;;;;;6.13;5.03;;;;;;;14.73;78.27;101960.56;5031144;28;20175;-74
2022/06/16 00:39:18;;;;;;;6.33;4.20;;;;;;;14.71;77.60;101963.09;5013487;28;20325;-74
2022/06/16 00:41:44;;;;;;;6.20;4.93;;;;;;;14.68;78.09;101957.88;5030339;28;20210;-74
2022/06/16 00:44:28;;;;;;;6.40;4.83;;;;;;;14.67;78.08;101968.16;5013252;28;20189;-74
2022/06/16 00:46:54;;;;;;;6.47;4.90;;;;;;;14.58;78.43;101961.09;5012757;28;20182;-74
2022/06/16 00:49:19;;;;;;;6.77;4.87;;;;;;;14.64;78.90;101958.63;5013337;28;20624;-74
2022/06/16 00:51:53;;;;;;;5.13;4.67;;;;;;;14.56;78.79;101954.19;5012990;28;20210;-74
2022/06/16 00:54:55;;;;;;;7.03;4.47;;;;;;;14.49;79.37;101953.19;5012538;28;20186;-74
2022/06/16 00:57:27;;;;;;;7.40;4.27;;;;;;;14.46;79.55;101955.69;5000076;28;20202;-74
2022/06/16 00:59:52;;;;;;;7.50;4.87;;;;;;;14.48;79.16;101954.03;5012390;28;20213;-74
2022/06/16 01:02:19;;;;;;;8.13;4.77;;;;;;;14.50;79.08;101952.31;5030654;28;20550;-74
2022/06/16 01:04:51;;;;;;;6.03;4.37;;;;;;;14.48;79.34;101953.13;5029860;28;20183;-74
2022/06/16 01:07:20;;;;;;;5.70;5.03;;;;;;;14.48;79.65;101954.03;5030300;28;20247;-74
2022/06/16 01:09:46;;;;;;;7.57;4.90;;;;;;;14.46;79.32;101953.09;5011917;28;20191;-74
2022/06/16 01:16:15;;;;;;;5.83;4.30;;;;;;;14.48;79.57;101956.59;5027786;28;20186;-74
2022/06/16 01:18:58;;;;;;;7.00;4.60;;;;;;;14.47;79.76;101952.28;5029456;28;20189;-74
2022/06/16 01:21:26;;;;;;;6.17;4.37;;;;;;;14.40;79.26;101960.72;5011871;28;20209;-75
2022/06/16 01:24:10;;;;;;;5.37;4.47;;;;;;;14.37;79.50;101957.19;5011825;28;20586;-74
2022/06/16 01:26:41;;;;;;;7.23;4.43;;;;;;;14.38;79.96;101948.63;5010223;28;20214;-74
2022/06/16 01:29:13;;;;;;;7.10;4.73;;;;;;;14.36;80.04;101948.59;5011894;28;20182;-74
2022/06/16 01:31:59;;;;;;;6.73;4.27;;;;;;;14.29;80.14;101954.47;5011391;28;20218;-74
2022/06/16 01:34:31;;;;;;;7.00;4.50;;;;;;;14.21;80.46;101957.69;5011933;28;20549;-74
2022/06/16 01:37:19;;;;;;;6.43;4.50;;;;;;;14.24;80.04;101955.19;5011620;28;20179;-74
2022/06/16 01:40:09;;;;;;;7.77;4.67;;;;;;;14.23;80.22;101963.75;5012017;28;20254;-74
2022/06/16 01:42:56;;;;;;;7.10;4.30;;;;;;;14.22;80.91;101955.13;4998847;28;20182;-74
2022/06/16 01:45:33;;;;;;;4.93;3.80;;;;;;;14.22;80.96;101951.72;4992184;28;20198;-74
2022/06/16 01:48:00;;;;;;;5.77;4.27;;;;;;;14.18;80.74;101958.44;5018444;28;20231;-74
2022/06/16 01:50:35;;;;;;;7.27;4.10;;;;;;;14.19;80.50;101961.91;4996765;28;20198;-74
2022/06/16 01:53:26;;;;;;;5.27;4.27;;;;;;;14.17;80.51;101951.56;5012423;28;20674;-74
2022/06/16 01:56:01;;;;;;;7.07;3.80;;;;;;;14.15;80.28;101942.94;5011174;28;20686;-74
2022/06/16 01:58:34;;;;;;;5.57;4.37;;;;;;;14.12;81.38;101935.13;5012013;28;20240;-74
2022/06/16 02:01:03;;;;;;;7.43;3.87;;;;;;;14.13;81.05;101933.44;5011477;28;20202;-74
2022/06/16 02:03:35;;;;;;;5.77;3.93;;;;;;;14.10;80.76;101938.50;5011675;28;20198;-74
2022/06/16 02:06:09;;;;;;;6.00;3.83;;;;;;;14.05;81.05;101935.81;5011238;28;20213;-73
2022/06/16 02:08:39;;;;;;;3.70;3.30;;;;;;;14.01;81.47;101938.31;5011518;28;20182;-74
2022/06/16 02:11:13;;;;;;;6.13;3.97;;;;;;;14.01;80.68;101926.31;5011209;28;20199;-74
2022/06/16 02:13:45;;;;;;;5.70;3.70;;;;;;;13.97;81.31;101928.75;5011689;28;20233;-74
2022/06/16 02:16:19;;;;;;;4.67;3.40;;;;;;;13.93;81.56;101922.69;5011105;28;20872;-74
2022/06/16 02:18:45;;;;;;;5.27;3.80;;;;;;;13.93;80.92;101921.78;5011052;28;20186;-74
2022/06/16 02:21:29;;;;;;;5.53;3.40;;;;;;;13.92;81.17;101914.91;4995309;28;20217;-75
2022/06/16 02:23:57;;;;;;;5.30;3.57;;;;;;;13.88;81.42;101921.72;5011222;28;20189;-74
2022/06/16 02:26:23;;;;;;;4.63;3.60;;;;;;;13.89;81.64;101915.72;5013035;28;20194;-74
2022/06/16 02:28:56;;;;;;;6.33;3.40;;;;;;;13.85;81.59;101918.19;5015306;28;20186;-74
2022/06/16 02:31:34;;;;;;;6.07;3.60;;;;;;;13.83;81.68;101927.56;5015517;28;20213;-74
2022/06/16 02:34:16;;;;;;;6.53;3.80;;;;;;;13.83;81.51;101931.03;5014935;28;20208;-74
2022/06/16 02:37:18;;;;;;;6.87;3.90;;;;;;;13.83;81.36;101936.19;5015387;28;20269;-74
2022/06/16 02:40:14;;;;;;;8.17;3.80;;;;;;;13.83;81.64;101927.56;5014916;28;20258;-74
2022/06/16 02:42:55;;;;;;;3.73;3.30;;;;;;;13.80;81.94;101925.78;5013063;28;20732;-74
2022/06/16 02:45:30;;;;;;;4.00;3.60;;;;;;;13.79;82.17;101920.59;4995044;28;20187;-75
2022/06/16 02:47:58;;;;;;;4.50;3.73;;;;;;;13.79;81.97;101929.22;5023752;28;20651;-74
2022/06/16 02:50:50;;;;;;;4.97;3.27;;;;;;;13.80;82.04;101930.94;5014437;28;20296;-74
2022/06/16 02:53:20;;;;;;;5.17;3.40;;;;;;;13.77;82.28;101932.59;4986140;28;20280;-74
2022/06/16 02:55:50;;;;;;;5.90;3.50;;;;;;;13.72;82.40;101922.16;5014469;28;21025;-74
2022/06/16 02:58:19;;;;;;;4.23;3.37;;;;;;;13.71;82.48;101920.44;5015307;28;20194;-74
2022/06/16 03:00:52;;;;;;;5.43;3.80;;;;;;;13.73;82.39;101915.31;5014874;28;20675;-75
2022/06/16 03:03:27;;;;;;;9.50;3.90;;;;;;;13.64;82.67;101917.66;5015583;28;20577;-74
2022/06/16 03:06:01;;;;;;;5.33;3.70;;;;;;;13.59;82.83;101927.00;5014947;28;20689;-74
2022/06/16 03:08:29;;;;;;;4.33;3.80;;;;;;;13.62;82.49;101945.09;5032561;28;20183;-74
2022/06/16 03:11:02;;;;;;;7.47;3.57;;;;;;;13.61;83.44;101939.06;5015008;28;20233;-74
2022/06/16 03:13:31;;;;;;;6.23;3.50;;;;;;;13.57;83.09;101947.53;5031516;28;20202;-74
2022/06/16 03:15:59;;;;;;;5.00;4.00;;;;;;;13.57;83.11;101951.81;5011250;28;20202;-74
2022/06/16 03:18:28;;;;;;;5.53;3.50;;;;;;;13.55;83.04;101950.91;5014521;28;20208;-74
2022/06/16 03:20:54;;;;;;;5.90;3.37;;;;;;;13.52;83.56;101956.84;4998264;28;20663;-74
2022/06/16 03:23:20;;;;;;;6.00;3.70;;;;;;;13.50;83.07;101953.38;5014173;28;20182;-74
2022/06/16 03:25:48;;;;;;;5.60;3.77;;;;;;;13.50;83.09;101957.63;5014585;28;20190;-74
2022/06/16 03:28:14;;;;;;;6.07;3.53;;;;;;;13.52;83.46;101963.69;4998441;28;20198;-74
2022/06/16 03:30:41;;;;;;;6.67;3.60;;;;;;;13.54;83.31;101964.63;5013977;28;20210;-73
2022/06/16 03:33:09;;;;;;;7.00;3.57;;;;;;;13.56;83.21;101955.22;5014301;28;20214;-74
2022/06/16 03:35:36;;;;;;;5.80;4.07;;;;;;;13.55;83.44;101961.19;5013621;28;20193;-74
2022/06/16 03:38:05;;;;;;;4.33;3.37;;;;;;;13.56;83.46;101961.25;5014086;28;20213;-74
2022/06/16 03:40:30;;;;;;;7.50;4.27;;;;;;;13.54;83.36;101967.19;4997477;28;20206;-74
2022/06/16 03:42:56;;;;;;;6.87;3.50;;;;;;;13.54;83.62;101964.63;5013965;28;20666;-74
2022/06/16 03:45:25;;;;;;;5.17;3.80;;;;;;;13.57;83.87;101972.38;5013535;28;20195;-74
2022/06/16 03:47:52;;;;;;;8.73;4.20;;;;;;;13.54;84.15;101962.88;5014261;28;20190;-75
2022/06/16 03:50:18;;;;;;;5.60;3.70;;;;;;;13.57;83.92;101965.56;5014182;28;20228;-74
2022/06/16 03:52:46;;;;;;;5.33;3.90;;;;;;;13.60;83.53;101968.22;5013518;28;20213;-74
2022/06/16 03:55:12;;;;;;;4.53;3.80;;;;;;;13.59;83.55;101969.06;5014043;28;20262;-74
2022/06/16 03:57:38;;;;;;;4.87;3.97;;;;;;;13.62;83.86;101966.53;5031375;28;20233;-74
2022/06/16 04:00:06;;;;;;;5.43;4.00;;;;;;;13.60;83.55;101965.63;5014079;28;20199;-74
2022/06/16 04:02:44;;;;;;;8.70;4.20;;;;;;;13.62;83.71;101969.09;5031826;28;20300;-74
2022/06/16 04:05:10;;;;;;;5.67;3.80;;;;;;;13.64;84.11;101975.19;5013765;28;20182;-75
2022/06/16 04:07:40;;;;;;;4.30;3.90;;;;;;;13.69;83.43;101981.31;5013379;28;20186;-74
2022/06/16 04:10:11;;;;;;;7.03;4.00;;;;;;;13.72;83.80;101980.53;4998234;28;20236;-74
2022/06/16 04:12:38;;;;;;;6.47;3.70;;;;;;;13.74;83.56;101978.84;5013573;28;20211;-74
2022/06/16 04:15:05;;;;;;;6.77;4.13;;;;;;;13.82;84.34;101983.38;5013132;28;20274;-75
2022/06/16 04:17:31;;;;;;;6.03;3.60;;;;;;;13.88;83.29;101986.09;5013608;28;20209;-74
2022/06/16 04:20:14;;;;;;;5.70;4.27;;;;;;;13.90;83.27;101992.13;5013076;28;20256;-74
2022/06/16 04:22:53;;;;;;;5.17;4.10;;;;;;;13.98;83.21;101992.31;5013826;28;20194;-74
2022/06/16 04:25:30;;;;;;;5.23;3.83;;;;;;;14.01;82.93;101997.53;5013021;28;20209;-74
2022/06/16 04:27:59;;;;;;;6.83;3.97;;;;;;;14.00;83.65;101999.22;5013877;28;20182;-74
2022/06/16 04:30:25;;;;;;;6.50;3.83;;;;;;;14.05;83.16;102000.22;5013303;28;20265;-74
2022/06/16 04:32:51;;;;;;;7.13;4.57;;;;;;;14.08;83.13;102008.03;5013272;28;20305;-74
2022/06/16 04:35:18;;;;;;;5.27;4.17;;;;;;;14.12;83.31;102007.25;5012664;28;20182;-74
2022/06/16 04:38:04;;;;;;;4.13;3.57;;;;;;;14.19;83.07;102005.72;4999763;28;20174;-73
2022/06/16 04:40:31;;;;;;;5.53;4.47;;;;;;;14.22;83.08;102011.81;5002459;28;20225;-74
2022/06/16 04:43:03;;;;;;;4.67;3.73;;;;;;;14.26;83.28;102011.06;4992763;28;20187;-74
2022/06/16 04:45:29;;;;;;;7.33;4.03;;;;;;;14.29;82.95;102013.72;4993666;28;20558;-74
2022/06/16 04:47:55;;;;;;;5.50;4.03;;;;;;;14.31;82.86;102018.91;4992880;28;20215;-74
2022/06/16 04:50:25;;;;;;;4.57;3.63;;;;;;;14.35;82.97;102018.13;4992473;28;20755;-75
2022/06/16 04:52:53;;;;;;;4.63;3.80;;;;;;;14.36;82.93;102017.31;4992807;28;20222;-73
2022/06/16 04:55:23;;;;;;;6.17;4.23;;;;;;;14.33;83.21;102015.53;4993213;28;20218;-74
2022/06/16 04:58:08;;;;;;;5.70;3.93;;;;;;;14.36;83.57;102019.88;5010746;28;20269;-75
2022/06/16 05:00:55;;;;;;;6.67;4.40;;;;;;;14.35;83.45;102021.59;4979999;28;20222;-74
2022/06/16 05:03:38;;;;;;;5.30;3.37;;;;;;;14.35;82.80;102021.59;5010372;28;20199;-74
2022/06/16 05:06:17;;;;;;;6.83;3.90;;;;;;;14.37;83.05;102025.06;4978686;28;20190;-74
2022/06/16 05:09:12;;;;;;;8.33;4.13;;;;;;;14.38;83.40;102018.22;4939452;28;20190;-74
2022/06/16 05:11:54;;;;;;;5.80;4.10;;;;;;;14.34;84.01;102025.00;4993017;28;20210;-74
2022/06/16 05:14:38;;;;;;;6.33;4.07;;;;;;;14.45;83.26;102025.25;4992656;28;20201;-74
2022/06/16 05:17:24;;;;;;;5.87;4.07;;;;;;;14.54;83.48;102030.63;4996457;28;20207;-73
2022/06/16 05:20:02;;;;;;;4.90;3.87;;;;;;;14.63;82.75;102034.25;4992523;28;20214;-73
2022/06/16 05:22:54;;;;;;;6.47;4.23;;;;;;;14.75;82.97;102041.38;4979590;28;20285;-74
2022/06/16 05:25:39;;;;;;;9.37;4.13;;;;;;;14.79;83.00;102048.34;5009714;28;20178;-74
2022/06/16 05:28:24;;;;;;;6.43;4.33;;;;;;;14.86;82.86;102048.50;5014574;28;20251;-74
2022/06/16 05:31:07;;;;;;;5.53;3.87;;;;;;;14.93;83.00;102052.09;5012206;28;20571;-74
2022/06/16 05:33:35;;;;;;;6.73;3.93;;;;;;;15.00;82.74;102051.38;5011010;28;20221;-75
2022/06/16 05:36:21;;;;;;;7.87;3.73;;;;;;;15.02;82.86;102055.75;5012405;28;20234;-75
2022/06/16 05:39:07;;;;;;;6.20;3.70;;;;;;;15.08;82.74;102055.88;5012633;28;20227;-74
2022/06/16 05:42:01;;;;;;;6.97;3.77;;;;;;;15.18;82.40;102054.31;5014362;28;20221;-74
2022/06/16 05:44:49;;;;;;;6.57;3.53;;;;;;;15.26;82.83;102064.00;5011318;28;20190;-74
2022/06/16 05:47:24;;;;;;;5.60;3.77;;;;;;;15.36;82.44;102067.63;5011572;28;20189;-74
2022/06/16 05:49:52;;;;;;;4.40;3.50;;;;;;;15.46;82.14;102061.81;5010289;28;20273;-74
2022/06/16 05:52:20;;;;;;;6.43;3.80;;;;;;;15.54;82.02;102063.72;5021815;28;20273;-75
2022/06/16 05:54:59;;;;;;;5.20;3.60;;;;;;;15.66;81.60;102047.56;5011247;28;20187;-75
2022/06/16 05:57:25;;;;;;;6.57;3.90;;;;;;;15.71;80.96;102051.09;5011857;28;20210;-74
2022/06/16 05:59:52;;;;;;;7.90;3.90;;;;;;;15.76;80.66;102050.34;5011320;28;20187;-75
2022/06/16 06:02:19;;;;;;;5.00;3.20;;;;;;;15.81;80.63;102048.72;5011752;28;20655;-75
2022/06/16 06:04:48;;;;;;;7.73;3.50;;;;;;;15.82;81.21;102063.38;5015190;28;20243;-75
2022/06/16 06:07:15;;;;;;;8.93;3.17;;;;;;;15.90;80.79;102058.34;5009997;28;20181;-75
2022/06/16 06:18:16;;;;;;;6.93;3.30;;;;;;;16.15;78.92;102063.06;5027577;28;20184;-74
2022/06/16 06:20:43;;;;;;;6.87;3.37;;;;;;;16.39;79.11;102063.47;5027859;28;20615;-75
2022/06/16 06:23:08;;;;;;;5.83;3.43;;;;;;;16.68;78.88;102063.09;5028991;28;20182;-74
2022/06/16 06:25:34;;;;;;;5.67;3.20;;;;;;;16.66;77.99;102061.28;5027813;28;20225;-75
2022/06/16 06:28:01;;;;;;;5.30;3.30;;;;;;;16.77;78.02;102060.59;5027897;28;20221;-75
2022/06/16 06:30:29;;;;;;;3.47;2.70;;;;;;;17.10;76.27;102061.06;5043818;28;20221;-75
2022/06/16 06:32:59;;;;;;;7.50;3.70;;;;;;;17.36;75.56;102061.38;5042616;28;20218;-75
2022/06/16 06:35:25;;;;;;;7.00;3.40;;;;;;;17.55;74.47;102063.34;5028506;28;20555;-75
2022/06/16 06:37:51;;;;;;;5.03;2.80;;;;;;;17.52;74.29;102061.59;5011299;28;20190;-75
2022/06/16 06:40:29;;;;;;;7.63;3.03;;;;;;;17.59;73.99;102059.94;5010867;28;20214;-75
2022/06/16 06:42:55;;;;;;;6.07;3.40;;;;;;;17.69;73.51;102065.19;5018520;28;20223;-75
2022/06/16 06:45:21;;;;;;;3.47;3.07;;;;;;;18.03;72.88;102059.50;5048863;28;20964;-74
2022/06/16 06:47:47;;;;;;;6.77;2.93;;;;;;;18.15;72.22;102066.50;5048574;28;20194;-75
2022/06/16 06:50:22;;;;;;;4.50;2.63;;;;;;;18.12;72.41;102072.53;5029441;28;20259;-75
2022/06/16 06:52:48;;;;;;;4.87;3.50;;;;;;;18.47;71.40;102071.09;5028615;28;20566;-74
2022/06/16 06:55:14;;;;;;;4.63;2.80;;;;;;;18.38;70.64;102077.97;5029145;28;20198;-75
2022/06/16 06:57:40;;;;;;;4.77;2.50;;;;;;;18.31;71.41;102089.09;5028752;28;20182;-74
2022/06/16 07:00:06;;;;;;;5.77;2.97;;;;;;;18.30;71.46;102089.97;5028918;28;20671;-74
2022/06/16 07:02:31;;;;;;;4.23;2.53;;;;;;;18.64;70.03;102086.78;5028953;28;20188;-75
2022/06/16 07:04:56;;;;;;;5.03;2.83;;;;;;;18.92;68.59;102083.47;5028555;28;20209;-76
2022/06/16 07:07:23;;;;;;;6.13;3.00;;;;;;;19.05;69.11;102096.56;5029132;28;20320;-76
2022/06/16 07:09:49;;;;;;;4.03;2.50;;;;;;;19.10;68.07;102096.56;5028596;28;20803;-75
2022/06/16 07:12:14;;;;;;;6.23;2.73;;;;;;;19.16;68.45;102097.47;5021020;28;20380;-76
2022/06/16 07:14:45;;;;;;;7.13;2.50;;;;;;;19.11;68.35;102103.50;5032288;28;20190;-77
2022/06/16 07:17:11;;;;;;;6.63;2.87;;;;;;;19.11;67.96;102100.91;5032643;28;20190;-75
2022/06/16 07:19:37;;;;;;;5.17;2.90;;;;;;;19.56;67.47;102101.97;5032727;28;20217;-75
2022/06/16 07:22:04;;;;;;;5.43;2.77;;;;;;;19.66;66.73;102092.50;5031242;28;20193;-75
2022/06/16 07:24:30;;;;;;;4.47;2.70;;;;;;;19.94;66.51;102100.31;5032698;28;20186;-75
2022/06/16 07:26:56;;;;;;;5.13;2.60;;;;;;;20.00;65.80;102097.72;5032114;28;20313;-75
2022/06/16 07:29:21;;;;;;;4.10;2.80;;;;;;;19.97;64.82;102095.13;5038733;28;20632;-75
2022/06/16 07:31:46;;;;;;;4.87;2.47;;;;;;;19.97;65.66;102105.53;5033681;28;20209;-76
2022/06/16 07:34:12;;;;;;;3.37;2.03;;;;;;;19.92;64.84;102098.59;5034433;28;20206;-75
2022/06/16 07:36:38;;;;;;;4.43;2.30;;;;;;;20.21;64.55;102097.78;5052051;28;20190;-76
2022/06/16 07:39:04;;;;;;;5.83;3.00;;;;;;;20.42;63.75;102102.13;5051611;28;20178;-75
2022/06/16 07:41:36;;;;;;;4.97;2.37;;;;;;;20.40;63.77;102109.06;5052023;28;20819;-75
2022/06/16 07:44:08;;;;;;;3.93;2.90;;;;;;;20.40;61.53;102104.72;5035542;28;20194;-76
2022/06/16 07:46:34;;;;;;;4.07;2.40;;;;;;;20.76;60.59;102103.81;5031719;28;20556;-75
2022/06/16 07:48:59;;;;;;;3.30;1.90;;;;;;;20.94;59.48;102099.47;5031518;28;20188;-74
2022/06/16 07:51:25;;;;;;;4.53;2.07;;;;;;;21.39;59.46;102108.84;5031847;28;20552;-74
2022/06/16 07:53:50;;;;;;;4.57;1.93;;;;;;;21.63;59.07;102113.94;5031825;28;20275;-75
2022/06/16 07:56:17;;;;;;;5.70;2.07;;;;;;;21.69;58.76;102114.81;5031163;28;20190;-74
2022/06/16 07:58:43;;;;;;;3.83;1.80;;;;;;;21.39;57.21;102109.72;5031683;28;20222;-74
2022/06/16 08:01:10;;;;;;;2.97;1.77;;;;;;;21.26;58.19;102115.84;5013386;28;20222;-74
2022/06/16 08:03:35;;;;;;;2.27;1.33;;;;;;;21.29;57.31;102112.38;5031812;28;20277;-75
2022/06/16 08:06:05;;;;;;;4.47;2.27;;;;;;;21.39;55.95;102112.34;5031177;28;20324;-74
2022/06/16 08:08:31;;;;;;;4.23;1.70;;;;;;;21.68;57.19;102113.03;5042458;28;21046;-74
2022/06/16 08:10:56;;;;;;;4.80;1.83;;;;;;;21.91;56.60;102111.19;5040457;28;20198;-74
2022/06/16 08:13:24;;;;;;;4.30;1.90;;;;;;;21.56;56.08;102115.69;5040408;28;20628;-74
2022/06/16 08:15:50;;;;;;;4.10;1.60;;;;;;;21.07;55.86;102123.72;5038934;28;20197;-74
2022/06/16 08:18:22;;;;;;;2.67;1.43;;;;;;;20.81;55.80;102123.75;5033139;28;20195;-74
2022/06/16 08:20:48;;;;;;;3.03;1.57;;;;;;;21.16;54.98;102127.19;5031161;28;20207;-74
2022/06/16 08:23:14;;;;;;;2.33;1.73;;;;;;;20.96;54.30;102122.91;5012403;28;20653;-74
2022/06/16 08:25:45;;;;;;;4.93;1.63;;;;;;;21.42;53.43;102127.09;5013156;28;20282;-74
2022/06/16 08:28:15;;;;;;;5.07;1.73;;;;;;;22.04;53.25;102130.25;5031225;28;20194;-74
2022/06/16 08:30:44;;;;;;;3.17;1.63;;;;;;;21.82;51.82;102126.03;5030452;28;20298;-74
2022/06/16 08:33:13;;;;;;;3.10;1.57;;;;;;;21.54;50.95;102114.84;5030753;28;20206;-74
2022/06/16 08:35:41;;;;;;;4.90;1.70;;;;;;;22.15;50.21;102112.75;5015942;28;20257;-74
2022/06/16 08:38:06;;;;;;;2.53;1.40;;;;;;;22.74;51.21;102114.88;5030963;28;20206;-74
2022/06/16 08:40:35;;;;;;;2.83;1.27;;;;;;;23.24;49.28;102110.84;5012720;28;20218;-74
2022/06/16 08:43:08;;;;;;;4.40;1.20;;;;;;;23.44;49.68;102098.38;5030968;28;20193;-75
2022/06/16 08:45:37;;;;;;;4.03;1.57;;;;;;;23.80;47.93;102095.25;5030578;28;20193;-75
2022/06/16 08:48:34;;;;;;;2.87;1.70;;;;;;;23.77;47.58;102102.31;5030175;28;20189;-75
2022/06/16 08:51:12;;;;;;;2.87;1.40;;;;;;;22.76;49.92;102114.00;5030694;28;20202;-76
2022/06/16 08:53:48;;;;;;;3.93;1.40;;;;;;;22.17;49.13;102113.63;4996091;28;20217;-74
2022/06/16 08:56:27;;;;;;;6.03;2.00;;;;;;;21.94;49.07;102102.47;5030371;28;20202;-75
2022/06/16 08:58:56;;;;;;;4.00;1.87;;;;;;;21.67;49.36;102105.22;5030086;28;20193;-75
2022/06/16 09:01:31;;;;;;;2.63;1.50;;;;;;;22.62;47.48;102104.56;5030444;28;20210;-75
2022/06/16 09:04:05;;;;;;;2.83;1.53;;;;;;;22.80;47.96;102106.97;5030023;28;20186;-75
2022/06/16 09:06:38;;;;;;;2.73;1.13;;;;;;;23.33;46.40;102109.88;5030241;28;20189;-75
2022/06/16 09:12:40;;;;;;;3.20;1.30;;;;;;;23.71;45.77;102107.63;5030481;28;20210;-74
2022/06/16 09:15:37;;;;;;;3.70;1.50;;;;;;;23.09;46.61;102107.53;5012251;28;20543;-75
2022/06/16 09:18:31;;;;;;;2.90;1.10;;;;;;;24.01;44.28;102108.06;5012702;28;20205;-75
2022/06/16 09:21:05;;;;;;;2.60;1.23;;;;;;;24.28;44.06;102112.88;5012054;28;20208;-76
2022/06/16 09:23:59;;;;;;;1.80;1.45;;;;;;;24.09;42.82;102114.06;5030265;28;20220;-75
2022/06/16 09:26:31;;;;;;;3.17;1.20;;;;;;;24.46;44.47;102107.31;5029475;28;20834;-75
2022/06/16 09:29:00;;;;;;;1.80;1.30;;;;;;;24.03;43.62;102116.75;5032769;28;20201;-74
2022/06/16 09:31:49;;;;;;;3.93;1.50;;;;;;;24.34;43.53;102112.75;5031800;28;20216;-75
2022/06/16 09:34:22;;;;;;;2.10;1.30;;;;;;;23.40;43.79;102127.22;5049540;28;20194;-74
2022/06/16 09:36:56;;;;;;;3.00;1.37;;;;;;;23.19;45.12;102119.63;5035196;28;20230;-75
2022/06/16 09:39:29;;;;;;;3.30;1.43;;;;;;;23.98;43.42;102120.34;5049317;28;20188;-75
2022/06/16 09:42:32;;;;;;;2.67;1.20;;;;;;;24.30;42.20;102113.69;5049535;28;20399;-74
2022/06/16 09:45:20;;;;;;;1.73;1.10;;;;;;;24.12;42.12;102124.47;4991837;28;20183;-75
2022/06/16 09:48:13;;;;;;;2.80;0.90;;;;;;;23.88;41.97;102119.56;5025270;28;20178;-74
2022/06/16 09:51:15;;;;;;;4.23;1.40;;;;;;;23.33;42.97;102117.72;5029179;28;20217;-76
2022/06/16 09:53:43;;;;;;;2.00;0.90;;;;;;;23.39;42.19;102128.97;4989686;28;20261;-74
2022/06/16 09:56:31;;;;;;;2.63;1.10;;;;;;;24.21;41.87;102113.00;5028724;28;20213;-74
2022/06/16 09:59:13;;;;;;;1.83;1.10;;;;;;;24.31;40.79;102122.44;5029227;28;20658;-74
2022/06/16 10:02:02;;;;;;;2.10;1.30;;;;;;;24.26;40.52;102121.66;5027703;28;20218;-75
2022/06/16 10:04:28;;;;;;;1.93;1.17;;;;;;;24.68;41.31;102111.31;5029457;28;20182;-75
2022/06/16 10:07:14;;;;;;;1.83;1.02;;;;;;;24.80;39.15;102107.59;5028211;28;20941;-76
2022/06/16 10:09:52;;;;;;;1.00;0.70;;;;;;;24.82;36.15;102104.06;5029067;28;20178;-75
2022/06/16 10:12:48;;;;;;;3.85;0.80;;;;;;;24.59;36.33;102107.97;5028046;28;20205;-74
2022/06/16 10:15:35;;;;;;;2.00;0.82;;;;;;;24.85;36.89;102113.63;5032543;28;20189;-74
2022/06/16 10:18:00;;;;;;;0.98;0.60;;;;;;;25.08;35.35;102116.66;5048052;28;20264;-75
2022/06/16 10:20:28;;;;;;;0.57;0.50;;;;;;;25.04;36.06;102117.63;5030942;28;20304;-75
2022/06/16 10:23:17;;;;;;;0.95;0.50;;;;;;;24.61;35.80;102125.44;5038010;28;20182;-74
2022/06/16 10:25:48;;;;;;;1.80;0.60;;;;;;;24.99;35.78;102124.69;5028632;28;20257;-74
2022/06/16 10:28:35;;;;;;;1.77;0.73;;;;;;;25.01;36.37;102120.31;5029427;28;20264;-75
2022/06/16 10:31:03;;;;;;;1.73;0.63;;;;;;;25.35;37.63;102126.63;5028220;28;20294;-74
2022/06/16 10:33:33;;;;;;;1.23;0.82;;;;;;;25.28;34.93;102123.25;5029018;28;20683;-74
2022/06/16 10:36:19;;;;;;;1.90;0.70;;;;;;;25.59;37.64;102129.59;5010470;28;20299;-74
2022/06/16 10:39:06;;;;;;;1.52;0.75;;;;;;;25.40;35.78;102132.66;5028742;28;20269;-75
2022/06/16 10:41:51;;;;;;;1.67;1.00;;;;;;;25.58;35.83;102138.38;5028356;28;20280;-75
2022/06/16 10:44:19;;;;;;;2.05;0.90;;;;;;;25.72;35.54;102140.69;5028998;28;20866;-75
2022/06/16 10:46:58;;;;;;;1.30;0.60;;;;;;;25.83;37.44;102138.72;5028737;28;20229;-74
2022/06/16 10:49:32;;;;;;;2.25;0.80;;;;;;;25.95;37.32;102141.06;5032607;28;20175;-75
2022/06/16 10:52:02;;;;;;;1.42;0.88;;;;;;;25.63;36.67;102149.66;5032368;28;20201;-75
2022/06/16 10:54:34;;;;;;;2.97;0.80;;;;;;;25.65;35.79;102154.88;5032984;28;20199;-74
2022/06/16 10:57:16;;;;;;;2.65;0.85;;;;;;;25.76;35.37;102155.47;5031817;28;20563;-75
2022/06/16 10:59:50;;;;;;;1.90;0.80;;;;;;;26.00;34.73;102165.47;5032455;28;20210;-74
2022/06/16 11:02:23;;;;;;;1.83;0.90;;;;;;;26.12;34.57;102162.56;5044155;28;20684;-75
2022/06/16 11:04:57;;;;;;;1.98;0.80;;;;;;;25.98;36.03;102160.28;5034631;28;20647;-75
2022/06/16 11:07:24;;;;;;;2.30;0.75;;;;;;;25.81;34.82;102157.13;5032251;28;20619;-76
2022/06/16 11:09:51;;;;;;;1.58;0.80;;;;;;;26.10;35.82;102159.13;5032328;28;20635;-75
2022/06/16 11:12:20;;;;;;;2.47;1.10;;;;;;;26.13;35.50;102154.66;5032611;28;20194;-75
2022/06/16 11:14:55;;;;;;;3.40;0.88;;;;;;;26.01;35.32;102154.94;5032177;28;20276;-75
2022/06/16 11:17:27;;;;;;;1.92;1.10;;;;;;;25.67;34.81;102159.19;5032769;28;20178;-75
2022/06/16 11:20:10;;;;;;;3.25;0.75;;;;;;;26.26;34.54;102157.84;5014237;28;20194;-74
2022/06/16 11:22:40;;;;;;;2.53;0.85;;;;;;;26.45;35.30;102156.50;5035812;28;20178;-74
2022/06/16 11:25:34;;;;;;;2.47;0.90;;;;;;;26.55;34.11;102155.34;5050142;28;20199;-74
2022/06/16 11:28:12;;;;;;;2.50;1.00;;;;;;;26.53;34.95;102152.75;5035530;28;20252;-74
2022/06/16 11:30:38;;;;;;;3.08;0.85;;;;;;;26.54;34.72;102146.63;5052003;28;20561;-74
2022/06/16 11:33:06;;;;;;;1.98;0.95;;;;;;;26.57;35.97;102145.72;5034917;28;20214;-75
2022/06/16 11:35:56;;;;;;;1.83;0.75;;;;;;;27.02;34.37;102147.97;5052409;28;20177;-75
2022/06/16 11:38:28;;;;;;;2.58;0.88;;;;;;;26.93;34.40;102155.28;5052672;28;20194;-75
2022/06/16 11:41:07;;;;;;;2.13;0.98;;;;;;;27.10;34.84;102151.28;5052195;28;20654;-74
2022/06/16 11:43:57;;;;;;;2.38;0.80;;;;;;;26.93;35.85;102150.03;5031418;28;20182;-74
2022/06/16 11:46:28;;;;;;;1.50;0.80;;;;;;;27.05;34.30;102147.91;5031472;28;20201;-74
2022/06/16 11:49:14;;;;;;;1.77;0.70;;;;;;;27.36;35.39;102161.09;5031218;28;20190;-74
2022/06/16 11:51:55;;;;;;;3.47;1.00;;;;;;;27.46;33.59;102157.28;5031777;28;20216;-75
2022/06/16 11:54:59;;;;;;;3.58;1.10;;;;;;;27.98;34.34;102157.47;5030914;28;20559;-75
2022/06/16 11:57:47;;;;;;;2.78;1.27;;;;;;;28.08;33.35;102154.50;5031441;28;20190;-75
2022/06/16 12:00:30;;;;;;;1.90;0.85;;;;;;;27.11;33.46;102155.63;5030852;28;20285;-75
2022/06/16 12:03:16;;;;;;;3.33;1.23;;;;;;;26.44;34.61;102160.88;5031614;28;20194;-75
2022/06/16 12:06:07;;;;;;;1.90;1.00;;;;;;;26.04;36.67;102154.88;5030698;28;20224;-75
2022/06/16 12:08:43;;;;;;;1.52;1.00;;;;;;;26.06;35.91;102160.09;5031501;28;20179;-75